Time;durP1;ratioP1;P1;durP2;ratioP2;P2;SDS_P1;SDS_P2;PMS_P1;PMS_P2;Temp;Humidity;BMP_temperature;BMP_pressure;BME280_temperature;BME280_humidity;BME280_pressure;Samples;Min_cycle;Max_cycle;Signal;HPM_P1;HPM_P2
2022/09/18 00:01:16;;;;;;;1.47;1.30;;;11.50;99.20;;;;;;6148838;28;20493;-66
2022/09/18 00:04:20;;;;;;;1.20;1.10;;;11.50;99.40;;;;;;6157338;28;20936;-67
2022/09/18 00:07:23;;;;;;;1.33;1.23;;;11.50;99.60;;;;;;6157282;28;20475;-67
2022/09/18 00:10:26;;;;;;;1.30;0.83;;;11.50;99.90;;;;;;6156830;28;20475;-66
2022/09/18 00:13:29;;;;;;;1.33;1.23;;;11.40;99.90;;;;;;6156767;28;20483;-67
2022/09/18 00:16:33;;;;;;;2.90;1.50;;;11.40;99.90;;;;;;6156933;28;20475;-67
2022/09/18 00:19:37;;;;;;;2.13;1.20;;;11.40;99.90;;;;;;6156868;28;20482;-67
2022/09/18 00:22:40;;;;;;;1.30;1.20;;;11.30;99.90;;;;;;6156775;28;20483;-68
2022/09/18 00:25:43;;;;;;;1.67;1.40;;;11.30;99.90;;;;;;6158372;28;20482;-67
2022/09/18 00:28:47;;;;;;;1.50;1.40;;;11.30;99.90;;;;;;6161309;28;21045;-67
2022/09/18 00:31:50;;;;;;;2.40;1.60;;;11.30;99.90;;;;;;6157556;28;20482;-66
2022/09/18 00:34:54;;;;;;;2.07;1.63;;;11.20;99.90;;;;;;6160240;28;20510;-67
2022/09/18 00:37:58;;;;;;;2.43;1.70;;;11.20;99.90;;;;;;6159389;28;20498;-68
2022/09/18 00:41:02;;;;;;;2.30;1.43;;;11.10;99.90;;;;;;6155630;28;20502;-68
2022/09/18 00:44:29;;;;;;;2.10;1.53;;;11.10;99.90;;;;;;6155767;28;20482;-68
2022/09/18 00:47:38;;;;;;;2.00;1.40;;;11.00;99.90;;;;;;6156127;28;20466;-68
2022/09/18 00:50:42;;;;;;;1.77;1.50;;;10.90;99.90;;;;;;6156106;28;20525;-67
2022/09/18 00:53:54;;;;;;;2.50;1.60;;;10.90;99.90;;;;;;6156299;28;20804;-68
2022/09/18 00:57:01;;;;;;;2.20;1.93;;;10.80;99.90;;;;;;6156077;28;20490;-68
2022/09/18 01:00:11;;;;;;;4.30;1.70;;;10.80;99.90;;;;;;6155586;28;20530;-68
2022/09/18 01:03:14;;;;;;;1.40;1.30;;;10.70;99.90;;;;;;6150522;28;20483;-68
2022/09/18 01:06:29;;;;;;;1.60;1.43;;;10.70;99.90;;;;;;6155088;28;20495;-68
2022/09/18 01:09:40;;;;;;;2.30;1.70;;;10.70;99.90;;;;;;6155403;28;20483;-68
2022/09/18 01:12:52;;;;;;;2.20;1.87;;;10.70;99.90;;;;;;6154380;28;20479;-68
2022/09/18 01:16:01;;;;;;;2.00;1.43;;;10.50;99.90;;;;;;6129046;29;20477;-68
2022/09/18 01:19:15;;;;;;;2.40;1.80;;;10.40;99.90;;;;;;6104998;29;20477;-68
2022/09/18 01:22:31;;;;;;;1.87;1.40;;;10.30;99.90;;;;;;6108124;29;20811;-67
2022/09/18 01:25:50;;;;;;;2.13;1.77;;;10.20;99.90;;;;;;6110364;29;20544;-67
2022/09/18 01:28:58;;;;;;;2.20;1.40;;;10.10;99.90;;;;;;6114805;29;20487;-66
2022/09/18 01:32:06;;;;;;;1.90;1.27;;;10.20;99.90;;;;;;6112667;29;20572;-67
2022/09/18 01:35:16;;;;;;;2.13;1.93;;;10.20;99.90;;;;;;6113919;29;20480;-67
2022/09/18 01:38:45;;;;;;;2.60;1.47;;;10.10;99.90;;;;;;6115942;28;20536;-66
2022/09/18 01:41:50;;;;;;;2.80;1.40;;;10.10;99.90;;;;;;6162859;28;20471;-67
2022/09/18 01:44:59;;;;;;;3.57;1.50;;;10.10;99.90;;;;;;6162212;28;20490;-67
2022/09/18 01:48:06;;;;;;;2.67;1.47;;;10.10;99.90;;;;;;6162566;28;20537;-67
2022/09/18 01:51:14;;;;;;;3.10;1.83;;;10.10;99.90;;;;;;6161878;28;20471;-66
2022/09/18 01:54:21;;;;;;;2.03;1.27;;;10.10;99.90;;;;;;6162472;28;20542;-66
2022/09/18 01:57:28;;;;;;;1.37;1.13;;;10.20;99.90;;;;;;6160573;28;20478;-67
2022/09/18 02:00:33;;;;;;;1.60;1.23;;;10.10;99.90;;;;;;6137391;29;20513;-66
2022/09/18 02:03:41;;;;;;;4.97;1.30;;;10.10;99.90;;;;;;6111548;29;20992;-66
2022/09/18 02:06:51;;;;;;;2.20;1.20;;;10.00;99.90;;;;;;6107234;29;20540;-66
2022/09/18 02:09:57;;;;;;;3.03;2.33;;;10.00;99.90;;;;;;6110224;28;20980;-67
2022/09/18 02:13:02;;;;;;;3.33;2.40;;;10.00;99.90;;;;;;6109916;29;20485;-66
2022/09/18 02:16:12;;;;;;;2.67;1.80;;;10.00;99.90;;;;;;6108916;29;20475;-66
2022/09/18 02:19:18;;;;;;;3.10;2.00;;;9.90;99.90;;;;;;6111563;29;20964;-66
2022/09/18 02:22:24;;;;;;;2.57;1.60;;;9.80;99.90;;;;;;6110889;29;20476;-67
2022/09/18 02:25:31;;;;;;;2.57;1.60;;;9.80;99.90;;;;;;6112687;29;20508;-67
2022/09/18 02:28:36;;;;;;;2.30;2.10;;;9.90;99.90;;;;;;6113636;29;20497;-67
2022/09/18 02:31:41;;;;;;;2.70;1.90;;;9.90;99.90;;;;;;6110058;29;20480;-67
2022/09/18 02:34:44;;;;;;;2.43;1.60;;;9.80;99.90;;;;;;6115938;29;20477;-67
2022/09/18 02:37:57;;;;;;;2.30;1.67;;;9.80;99.90;;;;;;6114573;29;20484;-67
2022/09/18 02:41:07;;;;;;;3.50;1.50;;;9.70;99.90;;;;;;6114622;29;20517;-67
2022/09/18 02:44:19;;;;;;;1.70;1.60;;;9.70;99.90;;;;;;6115704;29;20605;-67
2022/09/18 02:47:34;;;;;;;5.43;1.53;;;9.70;99.90;;;;;;6116836;29;20480;-67
2022/09/18 02:50:47;;;;;;;3.23;1.60;;;9.70;99.90;;;;;;6115354;29;20461;-66
2022/09/18 02:53:57;;;;;;;2.30;2.10;;;9.60;99.90;;;;;;6114761;29;20470;-68
2022/09/18 02:57:06;;;;;;;1.70;1.60;;;9.50;99.90;;;;;;6111382;29;21060;-67
2022/09/18 03:00:15;;;;;;;1.77;1.67;;;9.50;99.90;;;;;;6106866;29;20528;-66
2022/09/18 03:03:20;;;;;;;1.97;1.50;;;9.50;99.90;;;;;;6106575;29;20480;-67
2022/09/18 03:06:23;;;;;;;1.60;1.50;;;9.50;99.90;;;;;;6106674;29;20484;-67
2022/09/18 03:09:26;;;;;;;2.70;1.97;;;9.40;99.90;;;;;;6101459;29;20842;-67
2022/09/18 03:12:29;;;;;;;4.50;1.90;;;9.40;99.90;;;;;;6106851;29;20503;-67
2022/09/18 03:15:32;;;;;;;3.47;2.37;;;9.40;99.90;;;;;;6114932;29;20961;-67
2022/09/18 03:18:37;;;;;;;1.90;1.70;;;9.40;99.90;;;;;;6114485;29;20957;-67
2022/09/18 03:21:40;;;;;;;2.80;1.37;;;9.40;99.90;;;;;;6116733;29;20484;-67
2022/09/18 03:24:43;;;;;;;2.10;1.57;;;9.40;99.90;;;;;;6119294;29;20484;-67
2022/09/18 03:27:46;;;;;;;1.60;1.50;;;9.40;99.90;;;;;;6142763;28;20538;-68
2022/09/18 03:30:49;;;;;;;1.40;1.30;;;9.40;99.90;;;;;;6166660;28;20493;-66
2022/09/18 03:33:54;;;;;;;3.73;1.03;;;9.30;99.90;;;;;;6168516;28;20861;-68
2022/09/18 03:36:57;;;;;;;1.60;1.13;;;9.20;99.90;;;;;;6167948;28;20486;-66
2022/09/18 03:40:00;;;;;;;1.57;1.30;;;9.20;99.90;;;;;;6164516;28;20479;-67
2022/09/18 03:43:03;;;;;;;2.20;1.20;;;9.10;99.90;;;;;;6165563;28;20478;-66
2022/09/18 03:46:06;;;;;;;1.07;0.80;;;9.10;99.90;;;;;;6163840;28;20470;-67
2022/09/18 03:49:11;;;;;;;6.70;1.33;;;9.20;99.90;;;;;;6164057;28;20485;-67
2022/09/18 03:52:14;;;;;;;2.23;1.80;;;9.10;99.90;;;;;;6160677;28;20487;-65
2022/09/18 03:55:17;;;;;;;3.70;1.30;;;9.10;99.90;;;;;;6155927;28;21026;-64
2022/09/18 03:58:20;;;;;;;1.20;1.10;;;9.00;99.90;;;;;;6156486;28;20782;-64
2022/09/18 04:01:24;;;;;;;1.40;1.30;;;9.10;99.90;;;;;;6156236;28;20966;-64
2022/09/18 04:04:29;;;;;;;1.80;1.23;;;9.00;99.90;;;;;;6156377;28;20474;-64
2022/09/18 04:07:32;;;;;;;1.40;1.20;;;9.00;99.90;;;;;;6155889;28;20943;-65
2022/09/18 04:10:35;;;;;;;3.17;1.83;;;9.00;99.90;;;;;;6155790;28;20512;-64
2022/09/18 04:13:38;;;;;;;1.67;1.50;;;9.00;99.90;;;;;;6156114;28;20478;-64
2022/09/18 04:16:41;;;;;;;1.63;1.40;;;9.20;99.90;;;;;;6156000;28;20497;-64
2022/09/18 04:19:45;;;;;;;2.47;1.83;;;9.30;99.90;;;;;;6156058;28;20487;-64
2022/09/18 04:22:55;;;;;;;3.70;1.37;;;9.30;99.90;;;;;;6155727;28;20541;-64
2022/09/18 04:25:58;;;;;;;2.87;1.70;;;9.30;99.90;;;;;;6155690;28;20482;-64
2022/09/18 04:29:02;;;;;;;2.27;1.40;;;9.00;99.90;;;;;;6155464;28;20997;-65
2022/09/18 04:32:06;;;;;;;3.73;1.20;;;9.00;99.90;;;;;;6155750;28;20537;-65
2022/09/18 04:35:11;;;;;;;5.27;1.97;;;9.10;99.90;;;;;;6155023;28;20542;-65
2022/09/18 04:38:14;;;;;;;1.70;1.60;;;9.20;99.90;;;;;;6155054;28;20534;-65
2022/09/18 04:41:17;;;;;;;4.20;1.30;;;9.30;99.90;;;;;;6155173;28;20486;-65
2022/09/18 04:44:20;;;;;;;1.93;1.73;;;9.40;99.90;;;;;;6155427;28;20657;-65
2022/09/18 04:47:23;;;;;;;2.77;1.47;;;9.40;99.90;;;;;;6155173;28;21014;-65
2022/09/18 04:50:28;;;;;;;2.90;1.40;;;9.50;99.90;;;;;;6155038;28;20479;-65
2022/09/18 04:53:34;;;;;;;1.97;1.53;;;9.60;99.90;;;;;;6155152;28;20469;-65
2022/09/18 04:56:37;;;;;;;2.27;1.57;;;9.60;99.90;;;;;;6155184;28;20438;-64
2022/09/18 04:59:40;;;;;;;4.27;1.90;;;9.60;99.90;;;;;;6155156;28;20553;-64
2022/09/18 05:02:43;;;;;;;1.37;1.20;;;9.60;99.90;;;;;;6154781;28;20935;-64
2022/09/18 05:05:48;;;;;;;1.07;1.00;;;9.70;99.90;;;;;;6154913;28;20807;-65
2022/09/18 05:08:51;;;;;;;2.30;1.10;;;9.70;99.90;;;;;;6154423;28;20946;-65
2022/09/18 05:11:54;;;;;;;1.43;1.23;;;9.60;99.90;;;;;;6154875;28;20490;-65
2022/09/18 05:14:57;;;;;;;3.23;1.60;;;9.50;99.90;;;;;;6146135;28;20514;-65
2022/09/18 05:18:01;;;;;;;4.03;1.83;;;9.50;99.90;;;;;;6155060;28;20479;-65
2022/09/18 05:21:12;;;;;;;1.87;1.63;;;9.50;99.90;;;;;;6154083;28;20494;-65
2022/09/18 05:24:16;;;;;;;2.60;1.43;;;9.60;99.90;;;;;;6154284;28;20479;-64
2022/09/18 05:27:19;;;;;;;1.33;1.23;;;9.60;99.90;;;;;;6154069;28;20482;-64
2022/09/18 05:30:29;;;;;;;2.20;1.57;;;9.70;99.90;;;;;;6154487;28;20475;-64
2022/09/18 05:33:32;;;;;;;3.00;1.43;;;9.80;99.90;;;;;;6154199;28;20485;-64
2022/09/18 05:36:37;;;;;;;2.70;1.77;;;9.90;99.90;;;;;;6154332;28;20479;-64
2022/09/18 05:39:41;;;;;;;4.00;1.60;;;10.10;99.90;;;;;;6154031;28;20482;-65
2022/09/18 05:42:47;;;;;;;2.20;1.93;;;10.30;99.90;;;;;;6153810;28;20485;-65
2022/09/18 05:45:50;;;;;;;1.87;1.53;;;10.50;99.90;;;;;;6154279;28;20478;-65
2022/09/18 05:48:53;;;;;;;2.33;1.40;;;10.70;99.90;;;;;;6153631;28;20474;-65
2022/09/18 05:51:58;;;;;;;1.87;1.77;;;10.90;99.90;;;;;;6154101;28;20520;-65
2022/09/18 05:55:01;;;;;;;6.40;1.50;;;11.20;99.90;;;;;;6153608;28;20482;-64
2022/09/18 05:58:06;;;;;;;2.70;1.53;;;11.20;99.90;;;;;;6153915;28;20486;-64
2022/09/18 06:01:09;;;;;;;1.87;1.70;;;11.20;99.90;;;;;;6154155;28;20467;-64
2022/09/18 06:04:12;;;;;;;2.23;1.63;;;10.90;99.90;;;;;;6153927;28;20493;-66
2022/09/18 06:07:17;;;;;;;2.90;1.43;;;11.10;99.90;;;;;;6153433;28;20971;-65
2022/09/18 06:10:21;;;;;;;1.73;1.63;;;11.20;99.90;;;;;;6153446;28;20475;-65
2022/09/18 06:13:25;;;;;;;2.60;1.60;;;11.10;99.90;;;;;;6153380;28;20524;-65
2022/09/18 06:16:28;;;;;;;4.10;2.23;;;11.00;99.90;;;;;;6153531;28;20489;-65
2022/09/18 06:19:31;;;;;;;4.70;3.77;;;11.20;99.90;;;;;;6153393;28;20987;-65
2022/09/18 06:22:36;;;;;;;3.57;3.27;;;11.60;99.90;;;;;;6153069;28;20478;-65
2022/09/18 06:25:39;;;;;;;4.70;2.07;;;11.90;99.90;;;;;;6153284;28;20479;-65
2022/09/18 06:28:42;;;;;;;2.10;1.70;;;12.30;99.90;;;;;;6153176;28;21003;-70
2022/09/18 06:31:45;;;;;;;2.20;1.80;;;12.60;99.90;;;;;;6153306;28;20478;-64
2022/09/18 06:34:49;;;;;;;2.60;1.80;;;13.60;99.90;;;;;;6153397;28;20553;-64
2022/09/18 06:37:53;;;;;;;4.13;1.77;;;14.50;99.90;;;;;;6153085;28;20844;-64
2022/09/18 06:40:56;;;;;;;3.20;2.60;;;14.90;99.80;;;;;;6148528;28;20547;-64
2022/09/18 06:43:59;;;;;;;2.30;1.40;;;15.50;99.50;;;;;;6109210;28;20520;-64
2022/09/18 06:47:02;;;;;;;1.80;1.50;;;17.30;97.30;;;;;;6105350;29;20576;-65
2022/09/18 06:50:06;;;;;;;2.13;1.50;;;18.40;92.80;;;;;;6105833;29;20488;-64
2022/09/18 06:53:11;;;;;;;1.93;1.40;;;18.30;90.70;;;;;;6105166;29;20995;-64
2022/09/18 06:56:14;;;;;;;1.57;1.47;;;17.70;91.30;;;;;;6104992;29;20484;-64
2022/09/18 06:59:18;;;;;;;2.90;1.87;;;18.90;90.20;;;;;;6105942;29;20475;-65
2022/09/18 07:02:21;;;;;;;2.40;1.27;;;21.10;82.50;;;;;;6110248;29;20299;-65
2022/09/18 07:05:25;;;;;;;6.33;1.73;;;22.90;73.10;;;;;;6110342;29;20243;-65
2022/09/18 07:08:30;;;;;;;2.23;1.57;;;23.90;67.70;;;;;;6109909;29;20229;-65
2022/09/18 07:11:35;;;;;;;1.87;1.67;;;24.70;61.80;;;;;;6109923;29;20236;-65
2022/09/18 07:14:38;;;;;;;2.33;2.13;;;23.90;58.70;;;;;;6110309;29;20209;-65
2022/09/18 07:17:41;;;;;;;1.50;1.40;;;22.20;60.80;;;;;;6110421;29;20275;-65
2022/09/18 07:20:44;;;;;;;2.30;1.70;;;20.70;64.10;;;;;;6109655;29;20237;-66
2022/09/18 07:23:48;;;;;;;5.40;2.40;;;19.60;68.30;;;;;;6101082;29;20272;-65
2022/09/18 07:26:52;;;;;;;3.93;1.47;;;19.10;70.10;;;;;;6109979;28;20240;-65
2022/09/18 07:29:55;;;;;;;1.40;1.30;;;18.90;71.80;;;;;;6109920;29;20228;-66
2022/09/18 07:32:59;;;;;;;2.57;1.53;;;18.90;70.70;;;;;;6109003;29;20696;-65
2022/09/18 07:36:02;;;;;;;2.13;1.40;;;19.00;71.30;;;;;;6109583;29;20233;-65
2022/09/18 07:39:07;;;;;;;3.23;1.40;;;20.40;69.10;;;;;;6109827;29;20243;-65
2022/09/18 07:42:10;;;;;;;1.50;1.40;;;20.20;68.30;;;;;;6109116;29;20244;-64
2022/09/18 07:45:13;;;;;;;2.00;1.53;;;20.30;67.70;;;;;;6108998;29;20236;-63
2022/09/18 07:48:17;;;;;;;1.87;1.33;;;19.90;69.20;;;;;;6109562;28;20244;-64
2022/09/18 07:51:20;;;;;;;2.20;2.00;;;20.00;71.80;;;;;;6109330;29;20236;-63
2022/09/18 07:54:29;;;;;;;3.60;1.50;;;20.80;70.20;;;;;;6109410;28;20693;-64
2022/09/18 07:57:33;;;;;;;2.37;1.67;;;22.70;68.30;;;;;;6109134;29;20241;-64
2022/09/18 08:00:37;;;;;;;1.80;1.50;;;24.10;60.20;;;;;;6109106;28;20237;-64
2022/09/18 08:03:40;;;;;;;2.37;1.63;;;23.50;58.30;;;;;;6112215;29;20244;-64
2022/09/18 08:06:44;;;;;;;1.63;1.53;;;23.20;59.10;;;;;;6113359;29;20232;-63
2022/09/18 08:09:49;;;;;;;2.17;1.63;;;23.30;58.90;;;;;;6114895;29;20692;-63
2022/09/18 08:12:53;;;;;;;1.33;1.23;;;24.00;56.80;;;;;;6112399;29;20744;-64
2022/09/18 08:15:57;;;;;;;1.47;1.17;;;23.40;56.70;;;;;;6114767;29;20397;-64
2022/09/18 08:19:00;;;;;;;4.93;1.50;;;22.90;56.90;;;;;;6111157;29;20232;-65
2022/09/18 08:22:05;;;;;;;2.53;1.50;;;22.60;55.70;;;;;;6108495;29;20236;-64
2022/09/18 08:25:10;;;;;;;2.83;1.50;;;22.40;56.70;;;;;;6103781;29;20255;-64
2022/09/18 08:28:14;;;;;;;1.43;1.33;;;22.00;57.60;;;;;;6108550;28;20253;-64
2022/09/18 08:31:17;;;;;;;2.13;1.93;;;22.40;58.00;;;;;;6107814;29;20236;-66
2022/09/18 08:34:20;;;;;;;2.70;1.50;;;22.00;58.80;;;;;;6108030;29;20228;-64
2022/09/18 08:37:23;;;;;;;3.00;1.83;;;21.50;61.20;;;;;;6107794;29;20240;-65
2022/09/18 08:40:57;;;;;;;1.67;1.57;;;22.10;61.90;;;;;;6107847;29;20240;-65
2022/09/18 08:44:06;;;;;;;3.17;1.90;;;25.60;56.80;;;;;;6107917;29;20236;-64
2022/09/18 08:47:16;;;;;;;1.73;0.70;;;30.00;47.40;;;;;;6108175;29;20240;-64
2022/09/18 08:50:23;;;;;;;2.33;1.10;;;34.00;34.60;;;;;;6107697;29;20238;-65
2022/09/18 08:53:33;;;;;;;1.10;0.70;;;37.60;29.30;;;;;;6107814;29;20232;-66
2022/09/18 08:56:39;;;;;;;0.88;0.68;;;40.60;26.20;;;;;;6107788;29;20220;-65
2022/09/18 08:59:46;;;;;;;1.25;0.75;;;42.20;22.10;;;;;;6107510;29;20338;-66
2022/09/18 09:02:51;;;;;;;2.00;0.63;;;43.40;20.00;;;;;;6106874;29;21043;-66
2022/09/18 09:05:58;;;;;;;1.42;0.90;;;44.50;18.00;;;;;;6107088;29;20244;-66
2022/09/18 09:09:17;;;;;;;1.10;0.40;;;45.00;17.30;;;;;;6106771;29;20736;-66
2022/09/18 09:12:35;;;;;;;0.80;0.70;;;46.10;17.20;;;;;;6107780;29;20250;-66
2022/09/18 09:15:46;;;;;;;0.80;0.68;;;47.70;15.60;;;;;;6107104;29;20231;-66
2022/09/18 09:18:58;;;;;;;0.80;0.55;;;48.20;14.80;;;;;;6107076;29;20227;-66
2022/09/18 09:22:08;;;;;;;1.73;0.80;;;49.20;14.20;;;;;;6106543;29;20561;-66
2022/09/18 09:25:20;;;;;;;0.88;0.57;;;48.60;14.20;;;;;;6106919;29;20844;-66
2022/09/18 09:28:31;;;;;;;0.80;0.50;;;48.50;13.10;;;;;;6102556;29;20262;-66
2022/09/18 09:31:38;;;;;;;0.60;0.30;;;48.10;12.50;;;;;;6106870;28;20279;-66
2022/09/18 09:34:46;;;;;;;1.00;0.45;;;47.50;12.90;;;;;;6106890;29;20581;-66
2022/09/18 09:37:51;;;;;;;0.70;0.50;;;44.00;13.90;;;;;;6106742;29;20246;-66
2022/09/18 09:40:56;;;;;;;2.33;0.40;;;41.50;14.90;;;;;;6106027;29;20237;-66
2022/09/18 09:44:14;;;;;;;0.60;0.40;;;40.50;15.40;;;;;;6106381;29;20234;-66
2022/09/18 09:47:29;;;;;;;0.88;0.40;;;39.20;15.70;;;;;;6106756;29;20716;-63
2022/09/18 09:50:44;;;;;;;0.65;0.30;;;36.20;17.40;;;;;;6107036;28;20230;-63
2022/09/18 09:53:48;;;;;;;1.08;0.40;;;33.60;19.10;;;;;;6106314;29;20199;-63
2022/09/18 09:56:59;;;;;;;0.60;0.30;;;33.20;20.00;;;;;;6105933;29;20287;-63
2022/09/18 10:00:13;;;;;;;0.68;0.32;;;32.20;21.70;;;;;;6105527;29;20235;-62
2022/09/18 10:03:34;;;;;;;1.20;0.57;;;30.50;22.20;;;;;;6105315;29;20565;-62
2022/09/18 10:06:47;;;;;;;1.43;0.40;;;28.60;23.80;;;;;;6091471;29;20571;-63
2022/09/18 10:09:55;;;;;;;0.90;0.40;;;27.20;24.80;;;;;;6103797;29;20235;-63
2022/09/18 10:13:03;;;;;;;1.03;0.30;;;26.20;26.00;;;;;;6102116;29;20228;-62
2022/09/18 10:16:16;;;;;;;0.63;0.30;;;25.00;27.30;;;;;;6104523;29;20287;-62
2022/09/18 10:19:21;;;;;;;0.70;0.40;;;23.90;28.20;;;;;;6117955;29;20231;-62
2022/09/18 10:22:26;;;;;;;0.70;0.40;;;22.90;29.50;;;;;;6113457;29;20232;-62
2022/09/18 10:25:35;;;;;;;0.90;0.40;;;22.50;29.90;;;;;;6102691;29;20248;-61
2022/09/18 10:28:39;;;;;;;0.50;0.30;;;22.00;30.50;;;;;;6104917;29;20237;-61
2022/09/18 10:31:51;;;;;;;0.93;0.50;;;21.90;31.10;;;;;;6096788;29;20232;-61
2022/09/18 10:34:54;;;;;;;0.80;0.40;;;21.80;31.50;;;;;;6106576;28;20359;-62
2022/09/18 10:37:58;;;;;;;0.77;0.47;;;21.70;32.20;;;;;;6107761;29;20224;-62
2022/09/18 10:41:32;;;;;;;0.77;0.40;;;21.90;32.50;;;;;;6107413;29;20236;-62
2022/09/18 10:44:37;;;;;;;0.97;0.30;;;22.40;32.80;;;;;;6109399;28;20648;-62
2022/09/18 10:47:42;;;;;;;0.90;0.33;;;23.70;32.80;;;;;;6109371;29;20200;-62
2022/09/18 10:50:52;;;;;;;0.97;0.40;;;24.50;30.00;;;;;;6109467;28;20271;-62
2022/09/18 10:54:04;;;;;;;0.70;0.40;;;24.40;29.50;;;;;;6107695;29;20319;-62
2022/09/18 10:57:26;;;;;;;0.70;0.30;;;24.20;30.50;;;;;;6109765;29;20709;-62
2022/09/18 11:00:37;;;;;;;0.60;0.30;;;24.30;30.80;;;;;;6106689;29;20268;-62
2022/09/18 11:03:45;;;;;;;0.80;0.40;;;24.50;30.50;;;;;;6109430;29;20563;-62
2022/09/18 11:06:48;;;;;;;0.80;0.47;;;24.70;30.10;;;;;;6109403;29;20235;-62
2022/09/18 11:09:51;;;;;;;1.00;0.33;;;25.10;30.00;;;;;;6106914;29;20684;-61
2022/09/18 11:12:56;;;;;;;0.60;0.30;;;25.30;29.70;;;;;;6108249;29;20251;-61
2022/09/18 11:16:02;;;;;;;0.70;0.40;;;25.20;29.00;;;;;;6109046;29;20255;-62
2022/09/18 11:19:23;;;;;;;0.60;0.20;;;25.30;29.10;;;;;;6108441;29;20684;-62
2022/09/18 11:22:35;;;;;;;0.70;0.40;;;25.00;29.40;;;;;;6108892;29;20233;-62
2022/09/18 11:25:38;;;;;;;0.73;0.40;;;23.90;29.70;;;;;;6106406;29;20605;-61
2022/09/18 11:28:41;;;;;;;0.60;0.27;;;23.70;31.00;;;;;;6108631;29;20564;-63
2022/09/18 11:31:49;;;;;;;0.80;0.40;;;23.60;31.10;;;;;;6109458;29;20259;-64
2022/09/18 11:34:57;;;;;;;0.83;0.40;;;23.20;32.00;;;;;;6092887;29;20246;-64
2022/09/18 11:38:06;;;;;;;0.80;0.50;;;22.90;32.50;;;;;;6127481;29;20227;-64
2022/09/18 11:41:11;;;;;;;2.10;0.70;;;22.50;33.10;;;;;;6108998;29;20236;-65
2022/09/18 11:44:18;;;;;;;0.80;0.70;;;22.40;33.90;;;;;;6137872;28;20227;-67
2022/09/18 11:47:41;;;;;;;0.63;0.50;;;21.10;34.30;;;;;;6144120;28;20233;-65
2022/09/18 11:50:46;;;;;;;0.83;0.60;;;20.40;36.10;;;;;;6122956;28;20232;-66
2022/09/18 11:53:54;;;;;;;0.80;0.50;;;20.30;36.60;;;;;;6107698;29;20244;-66
2022/09/18 11:57:01;;;;;;;0.77;0.50;;;20.00;37.50;;;;;;6104645;28;20240;-67
2022/09/18 12:00:08;;;;;;;0.70;0.30;;;19.80;38.00;;;;;;6109109;29;20232;-65
2022/09/18 12:03:18;;;;;;;1.93;0.80;;;19.60;39.20;;;;;;6108790;28;20236;-66
2022/09/18 12:06:29;;;;;;;0.80;0.50;;;20.00;39.60;;;;;;6110696;29;20232;-67
2022/09/18 12:09:39;;;;;;;0.60;0.40;;;20.50;38.90;;;;;;6140538;28;20246;-67
2022/09/18 12:12:47;;;;;;;0.50;0.40;;;20.90;38.10;;;;;;6156377;28;20742;-65
2022/09/18 12:15:58;;;;;;;0.93;0.50;;;20.60;36.90;;;;;;6145573;28;20247;-65
2022/09/18 12:19:05;;;;;;;1.20;0.60;;;20.10;38.30;;;;;;6144309;28;20231;-66
2022/09/18 12:22:16;;;;;;;0.83;0.47;;;20.00;39.00;;;;;;6155600;28;20238;-65
2022/09/18 12:25:22;;;;;;;0.50;0.30;;;20.20;38.60;;;;;;6140818;28;20227;-65
2022/09/18 12:28:32;;;;;;;0.50;0.30;;;20.30;38.80;;;;;;6131745;28;20251;-66
2022/09/18 12:31:43;;;;;;;0.67;0.40;;;20.50;38.40;;;;;;6131171;28;20348;-65
2022/09/18 12:34:55;;;;;;;0.67;0.40;;;20.30;38.20;;;;;;6105192;29;20708;-66
2022/09/18 12:38:10;;;;;;;0.50;0.50;;;20.00;38.60;;;;;;6127177;29;20259;-66
2022/09/18 12:41:26;;;;;;;0.80;0.53;;;19.90;39.50;;;;;;6117587;29;20822;-66
2022/09/18 12:45:05;;;;;;;1.80;0.50;;;19.90;39.70;;;;;;6154861;28;20227;-66
2022/09/18 12:48:25;;;;;;;0.67;0.37;;;20.00;39.80;;;;;;6145669;28;20232;-65
2022/09/18 12:51:42;;;;;;;0.70;0.50;;;20.00;40.20;;;;;;6131295;29;20303;-67
2022/09/18 12:55:17;;;;;;;0.67;0.57;;;20.00;39.80;;;;;;6131106;28;20247;-65
2022/09/18 12:58:38;;;;;;;0.87;0.60;;;20.00;38.90;;;;;;6130070;28;20235;-67
2022/09/18 13:01:47;;;;;;;0.70;0.40;;;19.80;38.80;;;;;;6114438;28;20646;-67
2022/09/18 13:04:55;;;;;;;0.90;0.50;;;19.60;38.80;;;;;;6107007;29;20236;-67
2022/09/18 13:08:06;;;;;;;0.60;0.40;;;19.40;40.10;;;;;;6107228;29;20232;-69
2022/09/18 13:11:17;;;;;;;0.60;0.40;;;19.30;39.90;;;;;;6107120;29;20236;-68
2022/09/18 13:14:26;;;;;;;0.60;0.40;;;19.10;40.60;;;;;;6106416;29;20274;-68
2022/09/18 13:17:33;;;;;;;0.60;0.40;;;19.10;41.60;;;;;;6106704;28;20233;-68
2022/09/18 13:20:41;;;;;;;0.63;0.57;;;19.10;41.60;;;;;;6107159;29;20197;-68
2022/09/18 13:23:46;;;;;;;0.90;0.60;;;19.20;42.00;;;;;;6109159;28;20576;-66
2022/09/18 13:26:52;;;;;;;1.00;0.70;;;19.10;42.20;;;;;;6130330;29;20246;-68
2022/09/18 13:29:57;;;;;;;0.50;0.40;;;19.10;42.70;;;;;;6130541;28;20567;-67
2022/09/18 13:33:02;;;;;;;0.80;0.50;;;19.10;42.70;;;;;;6131291;28;20571;-67
2022/09/18 13:36:05;;;;;;;0.50;0.40;;;19.10;42.80;;;;;;6128969;28;20235;-67
2022/09/18 13:39:18;;;;;;;0.83;0.57;;;19.20;43.00;;;;;;6130375;28;20247;-68
2022/09/18 13:42:31;;;;;;;0.70;0.60;;;19.20;42.80;;;;;;6139852;28;20974;-69
2022/09/18 13:45:38;;;;;;;0.87;0.50;;;19.20;42.50;;;;;;6129932;29;20246;-70
2022/09/18 13:48:45;;;;;;;0.90;0.77;;;19.10;42.50;;;;;;6129826;28;20244;-65
2022/09/18 13:51:49;;;;;;;0.80;0.60;;;19.00;42.60;;;;;;6106049;29;20251;-66
2022/09/18 13:55:24;;;;;;;0.53;0.40;;;19.10;42.40;;;;;;6105227;28;20247;-65
2022/09/18 13:58:53;;;;;;;1.17;0.70;;;19.10;42.70;;;;;;6105415;29;20696;-65
2022/09/18 14:02:01;;;;;;;0.80;0.67;;;19.10;42.70;;;;;;6103110;28;20236;-65
2022/09/18 14:05:28;;;;;;;0.80;0.70;;;19.10;44.30;;;;;;6105235;29;20229;-65
2022/09/18 14:08:38;;;;;;;0.80;0.57;;;19.10;45.80;;;;;;6106312;28;20538;-65
2022/09/18 14:11:41;;;;;;;0.60;0.60;;;19.10;46.50;;;;;;6106458;29;20567;-65
2022/09/18 14:15:01;;;;;;;1.27;0.63;;;19.10;46.50;;;;;;6105369;29;20229;-66
2022/09/18 14:18:13;;;;;;;0.80;0.70;;;19.00;46.50;;;;;;6105400;29;20236;-65
2022/09/18 14:21:24;;;;;;;1.13;1.03;;;19.10;46.80;;;;;;6104311;29;20235;-65
2022/09/18 14:24:53;;;;;;;0.73;0.63;;;19.10;48.00;;;;;;6105343;29;20229;-65
2022/09/18 14:28:02;;;;;;;1.20;0.90;;;19.10;45.60;;;;;;6098167;29;20726;-66
2022/09/18 14:31:21;;;;;;;1.40;0.73;;;19.20;46.30;;;;;;6104653;29;20236;-66
2022/09/18 14:34:30;;;;;;;1.30;0.60;;;19.30;46.00;;;;;;6103590;29;20695;-66
2022/09/18 14:37:36;;;;;;;0.80;0.40;;;19.30;43.90;;;;;;6105634;29;20229;-70
2022/09/18 14:40:40;;;;;;;0.60;0.47;;;19.30;44.40;;;;;;6108882;29;20686;-67
2022/09/18 14:43:48;;;;;;;0.70;0.40;;;19.40;45.10;;;;;;6120943;28;20546;-67
2022/09/18 14:46:54;;;;;;;3.53;0.50;;;19.50;44.90;;;;;;6147998;28;20259;-66
2022/09/18 14:49:57;;;;;;;0.70;0.40;;;19.60;44.30;;;;;;6121033;28;20239;-66
2022/09/18 14:53:02;;;;;;;0.70;0.40;;;19.70;43.80;;;;;;6104785;29;20623;-66
2022/09/18 14:56:07;;;;;;;0.60;0.40;;;19.80;43.70;;;;;;6104802;29;20608;-66
2022/09/18 14:59:16;;;;;;;0.90;0.50;;;19.70;43.90;;;;;;6136413;28;20616;-66
2022/09/18 15:02:28;;;;;;;3.40;0.60;;;19.70;44.50;;;;;;6105898;29;20235;-67
2022/09/18 15:05:31;;;;;;;0.67;0.50;;;19.60;45.30;;;;;;6127439;28;20228;-67
2022/09/18 15:08:36;;;;;;;0.80;0.50;;;19.70;44.80;;;;;;6128710;28;20211;-66
2022/09/18 15:11:42;;;;;;;0.90;0.50;;;19.60;45.50;;;;;;6128635;28;20224;-66
2022/09/18 15:15:29;;;;;;;1.10;0.37;;;19.50;45.70;;;;;;6128348;28;20250;-68
2022/09/18 15:18:42;;;;;;;0.70;0.40;;;19.50;45.60;;;;;;6128167;28;20232;-68
2022/09/18 15:21:48;;;;;;;0.50;0.40;;;19.50;45.60;;;;;;6131762;28;20291;-68
2022/09/18 15:24:51;;;;;;;1.20;0.87;;;19.50;45.10;;;;;;6133044;28;20243;-69
2022/09/18 15:27:56;;;;;;;0.70;0.53;;;19.40;44.50;;;;;;6133056;28;20246;-69
2022/09/18 15:31:03;;;;;;;0.93;0.60;;;19.40;45.20;;;;;;6133130;28;20681;-68
2022/09/18 15:34:15;;;;;;;0.60;0.37;;;19.40;46.60;;;;;;6132655;28;20243;-69
2022/09/18 15:37:20;;;;;;;0.53;0.40;;;19.40;45.50;;;;;;6132776;29;20231;-69
2022/09/18 15:40:29;;;;;;;0.67;0.50;;;19.30;45.30;;;;;;6133436;29;20237;-67
2022/09/18 15:43:42;;;;;;;0.60;0.30;;;19.20;44.90;;;;;;6156493;28;20247;-66
2022/09/18 15:46:45;;;;;;;0.80;0.50;;;19.00;45.30;;;;;;6151869;28;20584;-64
2022/09/18 15:49:50;;;;;;;0.60;0.40;;;19.00;44.50;;;;;;6156265;28;20243;-66
2022/09/18 15:53:04;;;;;;;0.83;0.40;;;18.90;45.00;;;;;;6155932;28;20313;-67
2022/09/18 15:56:18;;;;;;;1.20;1.07;;;18.90;45.60;;;;;;6156213;28;20239;-67
2022/09/18 15:59:29;;;;;;;1.53;0.40;;;18.80;45.90;;;;;;6156248;28;20247;-67
2022/09/18 16:02:36;;;;;;;0.67;0.47;;;18.60;45.20;;;;;;6156184;28;20236;-67
2022/09/18 16:05:52;;;;;;;0.80;0.60;;;18.50;46.00;;;;;;6155932;28;20247;-67
2022/09/18 16:08:56;;;;;;;0.70;0.50;;;18.40;46.20;;;;;;6133462;29;20232;-67
2022/09/18 16:12:00;;;;;;;0.60;0.30;;;18.30;45.60;;;;;;6131253;29;20247;-67
2022/09/18 16:15:16;;;;;;;0.60;0.30;;;18.10;45.50;;;;;;6131740;29;20793;-67
2022/09/18 16:18:24;;;;;;;0.50;0.20;;;18.00;45.00;;;;;;6132019;29;20232;-67